sensor_id;sensor_type;location;lat;lon;timestamp;P1;durP1;ratioP1;P2;durP2;ratioP2
37609;SDS011;23457;51.966;8.230;2024-02-15T00:02:22;34.70;;;25.00;;
37609;SDS011;23457;51.966;8.230;2024-02-15T00:04:49;34.60;;;24.85;;
37609;SDS011;23457;51.966;8.230;2024-02-15T00:07:16;35.20;;;25.20;;
37609;SDS011;23457;51.966;8.230;2024-02-15T00:09:44;34.92;;;25.88;;
37609;SDS011;23457;51.966;8.230;2024-02-15T00:12:10;39.60;;;25.88;;
37609;SDS011;23457;51.966;8.230;2024-02-15T00:14:37;38.30;;;25.27;;
37609;SDS011;23457;51.966;8.230;2024-02-15T00:17:04;34.78;;;25.75;;
37609;SDS011;23457;51.966;8.230;2024-02-15T00:19:31;42.60;;;26.20;;
37609;SDS011;23457;51.966;8.230;2024-02-15T00:21:58;40.47;;;25.90;;
37609;SDS011;23457;51.966;8.230;2024-02-15T00:24:25;39.53;;;26.45;;
37609;SDS011;23457;51.966;8.230;2024-02-15T00:26:52;37.97;;;26.40;;
37609;SDS011;23457;51.966;8.230;2024-02-15T00:29:20;38.30;;;26.02;;
37609;SDS011;23457;51.966;8.230;2024-02-15T00:31:47;42.78;;;27.17;;
37609;SDS011;23457;51.966;8.230;2024-02-15T00:34:14;45.10;;;26.90;;
37609;SDS011;23457;51.966;8.230;2024-02-15T00:36:43;38.67;;;27.20;;
37609;SDS011;23457;51.966;8.230;2024-02-15T00:39:12;41.10;;;27.85;;
37609;SDS011;23457;51.966;8.230;2024-02-15T00:41:40;41.38;;;28.35;;
37609;SDS011;23457;51.966;8.230;2024-02-15T00:44:09;41.70;;;27.95;;
37609;SDS011;23457;51.966;8.230;2024-02-15T00:46:37;43.92;;;28.50;;
37609;SDS011;23457;51.966;8.230;2024-02-15T00:49:04;45.33;;;29.65;;
37609;SDS011;23457;51.966;8.230;2024-02-15T00:51:35;50.15;;;30.25;;
37609;SDS011;23457;51.966;8.230;2024-02-15T00:54:02;45.63;;;29.15;;
37609;SDS011;23457;51.966;8.230;2024-02-15T00:56:29;44.92;;;29.98;;
37609;SDS011;23457;51.966;8.230;2024-02-15T00:59:01;47.22;;;30.27;;
37609;SDS011;23457;51.966;8.230;2024-02-15T01:01:28;51.97;;;31.95;;
37609;SDS011;23457;51.966;8.230;2024-02-15T01:03:54;45.50;;;32.35;;
37609;SDS011;23457;51.966;8.230;2024-02-15T01:06:21;50.47;;;32.83;;
37609;SDS011;23457;51.966;8.230;2024-02-15T01:08:48;51.67;;;31.58;;
37609;SDS011;23457;51.966;8.230;2024-02-15T01:11:15;47.70;;;32.35;;
37609;SDS011;23457;51.966;8.230;2024-02-15T01:13:42;52.45;;;33.65;;
37609;SDS011;23457;51.966;8.230;2024-02-15T01:16:11;50.80;;;33.22;;
37609;SDS011;23457;51.966;8.230;2024-02-15T01:18:37;48.90;;;32.47;;
37609;SDS011;23457;51.966;8.230;2024-02-15T01:21:04;51.72;;;33.30;;
37609;SDS011;23457;51.966;8.230;2024-02-15T01:23:32;50.88;;;33.30;;
37609;SDS011;23457;51.966;8.230;2024-02-15T01:26:00;50.30;;;32.88;;
37609;SDS011;23457;51.966;8.230;2024-02-15T01:28:27;48.92;;;33.65;;
37609;SDS011;23457;51.966;8.230;2024-02-15T01:30:54;50.50;;;32.78;;
37609;SDS011;23457;51.966;8.230;2024-02-15T01:33:21;51.58;;;32.58;;
37609;SDS011;23457;51.966;8.230;2024-02-15T01:35:47;52.38;;;33.00;;
37609;SDS011;23457;51.966;8.230;2024-02-15T01:38:15;54.25;;;33.22;;
37609;SDS011;23457;51.966;8.230;2024-02-15T01:40:41;55.25;;;34.80;;
37609;SDS011;23457;51.966;8.230;2024-02-15T01:43:09;53.90;;;32.78;;
37609;SDS011;23457;51.966;8.230;2024-02-15T01:45:35;48.63;;;32.17;;
37609;SDS011;23457;51.966;8.230;2024-02-15T01:48:02;46.17;;;31.35;;
37609;SDS011;23457;51.966;8.230;2024-02-15T01:50:32;52.50;;;33.00;;
37609;SDS011;23457;51.966;8.230;2024-02-15T01:53:01;56.10;;;34.03;;
37609;SDS011;23457;51.966;8.230;2024-02-15T01:55:31;51.42;;;33.65;;
37609;SDS011;23457;51.966;8.230;2024-02-15T01:58:00;52.40;;;31.88;;
37609;SDS011;23457;51.966;8.230;2024-02-15T02:00:27;51.08;;;32.50;;
37609;SDS011;23457;51.966;8.230;2024-02-15T02:02:55;56.13;;;33.80;;
37609;SDS011;23457;51.966;8.230;2024-02-15T02:05:29;56.17;;;34.97;;
37609;SDS011;23457;51.966;8.230;2024-02-15T02:07:57;58.17;;;35.42;;
37609;SDS011;23457;51.966;8.230;2024-02-15T02:10:27;54.38;;;34.78;;
37609;SDS011;23457;51.966;8.230;2024-02-15T02:13:02;57.08;;;36.42;;
37609;SDS011;23457;51.966;8.230;2024-02-15T02:15:31;54.45;;;35.22;;
37609;SDS011;23457;51.966;8.230;2024-02-15T02:17:58;56.45;;;35.55;;
37609;SDS011;23457;51.966;8.230;2024-02-15T02:20:27;56.33;;;37.35;;
37609;SDS011;23457;51.966;8.230;2024-02-15T02:22:54;55.00;;;35.33;;
37609;SDS011;23457;51.966;8.230;2024-02-15T02:25:34;61.25;;;37.80;;
37609;SDS011;23457;51.966;8.230;2024-02-15T02:28:01;55.13;;;36.22;;
37609;SDS011;23457;51.966;8.230;2024-02-15T02:30:28;59.22;;;37.30;;
37609;SDS011;23457;51.966;8.230;2024-02-15T02:32:57;59.05;;;36.42;;
37609;SDS011;23457;51.966;8.230;2024-02-15T02:35:25;59.53;;;36.00;;
37609;SDS011;23457;51.966;8.230;2024-02-15T02:37:53;59.28;;;37.97;;
37609;SDS011;23457;51.966;8.230;2024-02-15T02:40:20;59.38;;;36.38;;
37609;SDS011;23457;51.966;8.230;2024-02-15T02:45:17;59.90;;;36.80;;
37609;SDS011;23457;51.966;8.230;2024-02-15T02:47:49;60.97;;;38.40;;
37609;SDS011;23457;51.966;8.230;2024-02-15T02:50:23;62.83;;;38.15;;
37609;SDS011;23457;51.966;8.230;2024-02-15T02:52:50;58.45;;;37.78;;
37609;SDS011;23457;51.966;8.230;2024-02-15T02:55:17;60.10;;;36.72;;
37609;SDS011;23457;51.966;8.230;2024-02-15T02:57:44;58.15;;;37.60;;
37609;SDS011;23457;51.966;8.230;2024-02-15T03:00:12;60.10;;;39.28;;
37609;SDS011;23457;51.966;8.230;2024-02-15T03:02:43;66.05;;;41.15;;
37609;SDS011;23457;51.966;8.230;2024-02-15T03:05:11;66.32;;;39.22;;
37609;SDS011;23457;51.966;8.230;2024-02-15T03:07:39;69.95;;;39.85;;
37609;SDS011;23457;51.966;8.230;2024-02-15T03:10:10;66.53;;;42.38;;
37609;SDS011;23457;51.966;8.230;2024-02-15T03:12:41;68.10;;;40.90;;
37609;SDS011;23457;51.966;8.230;2024-02-15T03:15:16;65.50;;;40.05;;
37609;SDS011;23457;51.966;8.230;2024-02-15T03:17:46;68.85;;;40.60;;
37609;SDS011;23457;51.966;8.230;2024-02-15T03:20:14;63.88;;;39.10;;
37609;SDS011;23457;51.966;8.230;2024-02-15T03:22:52;68.60;;;39.58;;
37609;SDS011;23457;51.966;8.230;2024-02-15T03:25:26;64.57;;;40.38;;
37609;SDS011;23457;51.966;8.230;2024-02-15T03:27:56;71.53;;;41.80;;
37609;SDS011;23457;51.966;8.230;2024-02-15T03:30:24;72.20;;;42.37;;
37609;SDS011;23457;51.966;8.230;2024-02-15T03:32:52;65.82;;;39.55;;
37609;SDS011;23457;51.966;8.230;2024-02-15T03:35:20;63.92;;;38.75;;
37609;SDS011;23457;51.966;8.230;2024-02-15T03:37:51;65.22;;;38.85;;
37609;SDS011;23457;51.966;8.230;2024-02-15T03:40:18;67.60;;;38.90;;
37609;SDS011;23457;51.966;8.230;2024-02-15T03:42:46;65.30;;;38.42;;
37609;SDS011;23457;51.966;8.230;2024-02-15T03:45:16;66.53;;;40.13;;
37609;SDS011;23457;51.966;8.230;2024-02-15T03:50:13;76.15;;;38.90;;
37609;SDS011;23457;51.966;8.230;2024-02-15T03:52:41;65.72;;;36.90;;
37609;SDS011;23457;51.966;8.230;2024-02-15T03:55:11;71.88;;;39.42;;
37609;SDS011;23457;51.966;8.230;2024-02-15T03:57:39;67.93;;;38.47;;
37609;SDS011;23457;51.966;8.230;2024-02-15T04:00:07;63.80;;;36.67;;
37609;SDS011;23457;51.966;8.230;2024-02-15T04:05:03;75.15;;;38.83;;
37609;SDS011;23457;51.966;8.230;2024-02-15T04:07:31;59.30;;;34.70;;
37609;SDS011;23457;51.966;8.230;2024-02-15T04:09:58;60.00;;;35.40;;
37609;SDS011;23457;51.966;8.230;2024-02-15T04:12:27;64.38;;;36.80;;
37609;SDS011;23457;51.966;8.230;2024-02-15T04:14:54;68.15;;;35.50;;
37609;SDS011;23457;51.966;8.230;2024-02-15T04:17:21;64.32;;;34.65;;
37609;SDS011;23457;51.966;8.230;2024-02-15T04:19:48;69.18;;;34.92;;
37609;SDS011;23457;51.966;8.230;2024-02-15T04:22:17;60.88;;;33.20;;
37609;SDS011;23457;51.966;8.230;2024-02-15T04:24:43;57.90;;;31.80;;
37609;SDS011;23457;51.966;8.230;2024-02-15T04:27:12;48.72;;;30.98;;
37609;SDS011;23457;51.966;8.230;2024-02-15T04:29:41;62.13;;;31.27;;
37609;SDS011;23457;51.966;8.230;2024-02-15T04:32:10;66.15;;;31.95;;
37609;SDS011;23457;51.966;8.230;2024-02-15T04:58:40;46.80;;;25.23;;
37609;SDS011;23457;51.966;8.230;2024-02-15T05:01:14;45.92;;;25.17;;
37609;SDS011;23457;51.966;8.230;2024-02-15T05:03:45;42.78;;;25.30;;
37609;SDS011;23457;51.966;8.230;2024-02-15T05:06:12;45.80;;;24.90;;
37609;SDS011;23457;51.966;8.230;2024-02-15T05:08:39;44.83;;;25.48;;
37609;SDS011;23457;51.966;8.230;2024-02-15T05:11:09;34.35;;;22.98;;
37609;SDS011;23457;51.966;8.230;2024-02-15T05:13:48;40.55;;;22.85;;
37609;SDS011;23457;51.966;8.230;2024-02-15T05:16:17;40.95;;;22.23;;
37609;SDS011;23457;51.966;8.230;2024-02-15T05:18:44;42.25;;;22.30;;
37609;SDS011;23457;51.966;8.230;2024-02-15T05:21:12;35.22;;;21.60;;
37609;SDS011;23457;51.966;8.230;2024-02-15T05:23:39;31.88;;;21.10;;
37609;SDS011;23457;51.966;8.230;2024-02-15T05:26:06;38.25;;;21.10;;
37609;SDS011;23457;51.966;8.230;2024-02-15T05:28:34;37.15;;;21.88;;
37609;SDS011;23457;51.966;8.230;2024-02-15T05:31:14;34.67;;;20.25;;
37609;SDS011;23457;51.966;8.230;2024-02-15T05:33:52;35.05;;;20.13;;
37609;SDS011;23457;51.966;8.230;2024-02-15T05:36:20;35.42;;;19.75;;
37609;SDS011;23457;51.966;8.230;2024-02-15T05:38:49;34.63;;;19.67;;
37609;SDS011;23457;51.966;8.230;2024-02-15T05:41:18;27.75;;;19.30;;
37609;SDS011;23457;51.966;8.230;2024-02-15T05:43:47;33.80;;;20.27;;
37609;SDS011;23457;51.966;8.230;2024-02-15T05:46:19;30.90;;;19.13;;
37609;SDS011;23457;51.966;8.230;2024-02-15T05:48:49;27.25;;;19.30;;
37609;SDS011;23457;51.966;8.230;2024-02-15T05:51:18;34.35;;;20.50;;
37609;SDS011;23457;51.966;8.230;2024-02-15T05:53:44;31.55;;;19.65;;
37609;SDS011;23457;51.966;8.230;2024-02-15T05:56:12;26.50;;;19.27;;
37609;SDS011;23457;51.966;8.230;2024-02-15T05:58:40;29.35;;;17.88;;
37609;SDS011;23457;51.966;8.230;2024-02-15T06:01:06;33.10;;;19.33;;
37609;SDS011;23457;51.966;8.230;2024-02-15T06:03:34;36.63;;;20.88;;
37609;SDS011;23457;51.966;8.230;2024-02-15T06:06:05;35.35;;;19.80;;
37609;SDS011;23457;51.966;8.230;2024-02-15T06:08:35;32.65;;;19.90;;
37609;SDS011;23457;51.966;8.230;2024-02-15T06:11:03;30.58;;;18.80;;
37609;SDS011;23457;51.966;8.230;2024-02-15T06:13:32;31.13;;;18.53;;
37609;SDS011;23457;51.966;8.230;2024-02-15T06:15:59;30.05;;;18.40;;
37609;SDS011;23457;51.966;8.230;2024-02-15T06:18:28;28.30;;;18.10;;
37609;SDS011;23457;51.966;8.230;2024-02-15T06:20:56;24.38;;;17.65;;
37609;SDS011;23457;51.966;8.230;2024-02-15T06:23:23;31.00;;;18.40;;
37609;SDS011;23457;51.966;8.230;2024-02-15T06:25:52;30.23;;;18.15;;
37609;SDS011;23457;51.966;8.230;2024-02-15T06:28:20;33.00;;;19.15;;
37609;SDS011;23457;51.966;8.230;2024-02-15T06:31:07;29.63;;;19.20;;
37609;SDS011;23457;51.966;8.230;2024-02-15T06:33:52;29.33;;;18.63;;
37609;SDS011;23457;51.966;8.230;2024-02-15T06:37:00;33.28;;;20.98;;
37609;SDS011;23457;51.966;8.230;2024-02-15T06:39:45;35.83;;;19.50;;
37609;SDS011;23457;51.966;8.230;2024-02-15T06:42:13;27.83;;;19.42;;
37609;SDS011;23457;51.966;8.230;2024-02-15T06:44:47;36.03;;;21.10;;
37609;SDS011;23457;51.966;8.230;2024-02-15T06:47:15;32.42;;;19.10;;
37609;SDS011;23457;51.966;8.230;2024-02-15T06:52:16;39.35;;;23.02;;
37609;SDS011;23457;51.966;8.230;2024-02-15T06:54:44;37.53;;;21.55;;
37609;SDS011;23457;51.966;8.230;2024-02-15T06:57:12;31.75;;;18.55;;
37609;SDS011;23457;51.966;8.230;2024-02-15T06:59:38;36.22;;;19.30;;
37609;SDS011;23457;51.966;8.230;2024-02-15T07:02:06;31.60;;;20.05;;
37609;SDS011;23457;51.966;8.230;2024-02-15T07:04:35;30.23;;;17.98;;
37609;SDS011;23457;51.966;8.230;2024-02-15T07:07:03;28.02;;;17.23;;
37609;SDS011;23457;51.966;8.230;2024-02-15T07:09:31;28.85;;;16.35;;
37609;SDS011;23457;51.966;8.230;2024-02-15T07:11:58;26.20;;;16.38;;
37609;SDS011;23457;51.966;8.230;2024-02-15T07:14:25;26.42;;;15.05;;
37609;SDS011;23457;51.966;8.230;2024-02-15T07:16:55;29.20;;;14.60;;
37609;SDS011;23457;51.966;8.230;2024-02-15T07:19:25;20.63;;;13.40;;
37609;SDS011;23457;51.966;8.230;2024-02-15T07:21:54;27.00;;;13.00;;
37609;SDS011;23457;51.966;8.230;2024-02-15T07:24:21;22.05;;;13.15;;
37609;SDS011;23457;51.966;8.230;2024-02-15T07:26:48;24.38;;;12.35;;
37609;SDS011;23457;51.966;8.230;2024-02-15T07:29:15;24.25;;;12.68;;
37609;SDS011;23457;51.966;8.230;2024-02-15T07:31:41;18.23;;;11.75;;
37609;SDS011;23457;51.966;8.230;2024-02-15T07:34:08;17.85;;;10.95;;
37609;SDS011;23457;51.966;8.230;2024-02-15T07:36:36;19.90;;;12.07;;
37609;SDS011;23457;51.966;8.230;2024-02-15T07:39:02;19.42;;;10.48;;
37609;SDS011;23457;51.966;8.230;2024-02-15T07:41:30;18.27;;;10.88;;
37609;SDS011;23457;51.966;8.230;2024-02-15T07:44:00;20.58;;;10.40;;
37609;SDS011;23457;51.966;8.230;2024-02-15T07:46:27;15.63;;;10.82;;
37609;SDS011;23457;51.966;8.230;2024-02-15T07:48:55;14.80;;;9.68;;
37609;SDS011;23457;51.966;8.230;2024-02-15T07:51:23;17.73;;;9.25;;
37609;SDS011;23457;51.966;8.230;2024-02-15T07:53:51;13.65;;;8.50;;
37609;SDS011;23457;51.966;8.230;2024-02-15T07:56:18;16.45;;;8.40;;
37609;SDS011;23457;51.966;8.230;2024-02-15T07:58:46;15.38;;;8.80;;
37609;SDS011;23457;51.966;8.230;2024-02-15T08:01:19;19.17;;;8.35;;
37609;SDS011;23457;51.966;8.230;2024-02-15T08:03:51;14.73;;;8.05;;
37609;SDS011;23457;51.966;8.230;2024-02-15T08:08:47;11.80;;;7.20;;
37609;SDS011;23457;51.966;8.230;2024-02-15T08:11:14;17.67;;;8.07;;
37609;SDS011;23457;51.966;8.230;2024-02-15T08:13:45;14.80;;;8.13;;
37609;SDS011;23457;51.966;8.230;2024-02-15T08:16:14;13.90;;;7.75;;
37609;SDS011;23457;51.966;8.230;2024-02-15T08:18:45;18.58;;;8.93;;
37609;SDS011;23457;51.966;8.230;2024-02-15T08:21:15;16.83;;;7.93;;
37609;SDS011;23457;51.966;8.230;2024-02-15T08:23:42;16.17;;;7.22;;
37609;SDS011;23457;51.966;8.230;2024-02-15T08:26:09;16.67;;;7.32;;
37609;SDS011;23457;51.966;8.230;2024-02-15T08:28:39;12.07;;;6.90;;
37609;SDS011;23457;51.966;8.230;2024-02-15T08:31:05;14.52;;;6.57;;
37609;SDS011;23457;51.966;8.230;2024-02-15T08:33:34;12.55;;;7.00;;
37609;SDS011;23457;51.966;8.230;2024-02-15T08:36:01;11.27;;;5.78;;
37609;SDS011;23457;51.966;8.230;2024-02-15T08:38:29;12.93;;;6.47;;
37609;SDS011;23457;51.966;8.230;2024-02-15T08:40:55;14.82;;;6.10;;
37609;SDS011;23457;51.966;8.230;2024-02-15T08:43:22;14.80;;;6.18;;
37609;SDS011;23457;51.966;8.230;2024-02-15T08:45:49;17.20;;;5.88;;
37609;SDS011;23457;51.966;8.230;2024-02-15T08:48:17;9.30;;;5.60;;
37609;SDS011;23457;51.966;8.230;2024-02-15T08:50:44;11.23;;;6.00;;
37609;SDS011;23457;51.966;8.230;2024-02-15T08:53:12;9.73;;;5.03;;
37609;SDS011;23457;51.966;8.230;2024-02-15T08:55:41;13.38;;;5.88;;
37609;SDS011;23457;51.966;8.230;2024-02-15T08:58:08;14.82;;;5.82;;
37609;SDS011;23457;51.966;8.230;2024-02-15T09:00:36;12.43;;;5.40;;
37609;SDS011;23457;51.966;8.230;2024-02-15T09:03:07;13.80;;;5.28;;
37609;SDS011;23457;51.966;8.230;2024-02-15T09:05:34;13.32;;;5.63;;
37609;SDS011;23457;51.966;8.230;2024-02-15T09:08:01;10.80;;;5.55;;
37609;SDS011;23457;51.966;8.230;2024-02-15T09:10:30;10.88;;;5.13;;
37609;SDS011;23457;51.966;8.230;2024-02-15T09:12:57;12.13;;;4.80;;
37609;SDS011;23457;51.966;8.230;2024-02-15T09:15:24;11.85;;;5.50;;
37609;SDS011;23457;51.966;8.230;2024-02-15T09:17:51;13.60;;;5.28;;
37609;SDS011;23457;51.966;8.230;2024-02-15T09:20:21;11.45;;;5.32;;
37609;SDS011;23457;51.966;8.230;2024-02-15T09:22:51;11.88;;;5.57;;
37609;SDS011;23457;51.966;8.230;2024-02-15T09:25:18;15.48;;;5.82;;
37609;SDS011;23457;51.966;8.230;2024-02-15T09:27:45;12.48;;;5.47;;
37609;SDS011;23457;51.966;8.230;2024-02-15T09:30:13;12.10;;;5.47;;
37609;SDS011;23457;51.966;8.230;2024-02-15T09:32:41;9.02;;;5.20;;
37609;SDS011;23457;51.966;8.230;2024-02-15T09:35:12;13.07;;;4.90;;
37609;SDS011;23457;51.966;8.230;2024-02-15T09:37:44;9.25;;;5.00;;
37609;SDS011;23457;51.966;8.230;2024-02-15T09:40:12;7.05;;;4.30;;
37609;SDS011;23457;51.966;8.230;2024-02-15T09:42:42;11.57;;;5.68;;
37609;SDS011;23457;51.966;8.230;2024-02-15T09:45:11;13.93;;;5.20;;
37609;SDS011;23457;51.966;8.230;2024-02-15T09:47:44;14.35;;;5.18;;
37609;SDS011;23457;51.966;8.230;2024-02-15T09:50:12;10.48;;;5.22;;
37609;SDS011;23457;51.966;8.230;2024-02-15T09:52:42;8.68;;;5.18;;
37609;SDS011;23457;51.966;8.230;2024-02-15T09:55:11;13.18;;;4.97;;
37609;SDS011;23457;51.966;8.230;2024-02-15T09:57:43;16.08;;;5.78;;
37609;SDS011;23457;51.966;8.230;2024-02-15T10:00:13;11.82;;;5.22;;
37609;SDS011;23457;51.966;8.230;2024-02-15T10:02:44;12.63;;;4.65;;
37609;SDS011;23457;51.966;8.230;2024-02-15T10:05:17;10.50;;;5.85;;
37609;SDS011;23457;51.966;8.230;2024-02-15T10:07:44;10.02;;;5.38;;
37609;SDS011;23457;51.966;8.230;2024-02-15T10:12:45;13.68;;;4.93;;
37609;SDS011;23457;51.966;8.230;2024-02-15T10:15:28;17.02;;;5.72;;
37609;SDS011;23457;51.966;8.230;2024-02-15T10:18:00;15.10;;;6.15;;
37609;SDS011;23457;51.966;8.230;2024-02-15T10:20:28;11.82;;;5.60;;
37609;SDS011;23457;51.966;8.230;2024-02-15T10:25:33;13.50;;;5.90;;
37609;SDS011;23457;51.966;8.230;2024-02-15T10:28:03;12.90;;;5.88;;
37609;SDS011;23457;51.966;8.230;2024-02-15T10:30:37;14.93;;;5.88;;
37609;SDS011;23457;51.966;8.230;2024-02-15T10:33:06;10.77;;;5.50;;
37609;SDS011;23457;51.966;8.230;2024-02-15T10:35:36;11.32;;;6.10;;
37609;SDS011;23457;51.966;8.230;2024-02-15T10:38:10;14.02;;;5.40;;
37609;SDS011;23457;51.966;8.230;2024-02-15T10:40:38;14.15;;;6.22;;
37609;SDS011;23457;51.966;8.230;2024-02-15T10:43:08;12.25;;;5.28;;
37609;SDS011;23457;51.966;8.230;2024-02-15T10:45:37;11.30;;;5.63;;
37609;SDS011;23457;51.966;8.230;2024-02-15T10:48:10;11.80;;;6.05;;
37609;SDS011;23457;51.966;8.230;2024-02-15T10:50:41;15.35;;;5.85;;
37609;SDS011;23457;51.966;8.230;2024-02-15T10:53:30;15.90;;;5.50;;
37609;SDS011;23457;51.966;8.230;2024-02-15T10:58:59;12.32;;;5.85;;
37609;SDS011;23457;51.966;8.230;2024-02-15T11:01:35;11.60;;;5.40;;
37609;SDS011;23457;51.966;8.230;2024-02-15T11:04:08;10.43;;;5.38;;
37609;SDS011;23457;51.966;8.230;2024-02-15T11:06:42;13.65;;;6.47;;
37609;SDS011;23457;51.966;8.230;2024-02-15T11:09:11;13.68;;;5.72;;
37609;SDS011;23457;51.966;8.230;2024-02-15T11:11:38;12.65;;;5.93;;
37609;SDS011;23457;51.966;8.230;2024-02-15T11:14:27;15.75;;;6.32;;
37609;SDS011;23457;51.966;8.230;2024-02-15T11:16:59;13.23;;;5.72;;
37609;SDS011;23457;51.966;8.230;2024-02-15T11:22:09;12.38;;;5.68;;
37609;SDS011;23457;51.966;8.230;2024-02-15T11:24:44;14.25;;;5.97;;
37609;SDS011;23457;51.966;8.230;2024-02-15T11:27:28;14.70;;;5.30;;
37609;SDS011;23457;51.966;8.230;2024-02-15T11:29:57;12.27;;;5.07;;
37609;SDS011;23457;51.966;8.230;2024-02-15T11:35:05;12.90;;;5.90;;
37609;SDS011;23457;51.966;8.230;2024-02-15T11:40:22;16.42;;;5.30;;
37609;SDS011;23457;51.966;8.230;2024-02-15T11:42:51;9.32;;;4.78;;
37609;SDS011;23457;51.966;8.230;2024-02-15T11:45:19;13.45;;;4.75;;
37609;SDS011;23457;51.966;8.230;2024-02-15T11:47:48;10.55;;;4.15;;
37609;SDS011;23457;51.966;8.230;2024-02-15T11:52:44;15.90;;;4.70;;
37609;SDS011;23457;51.966;8.230;2024-02-15T11:55:18;7.55;;;3.83;;
37609;SDS011;23457;51.966;8.230;2024-02-15T11:57:55;12.97;;;4.27;;
37609;SDS011;23457;51.966;8.230;2024-02-15T12:00:43;8.13;;;3.60;;
37609;SDS011;23457;51.966;8.230;2024-02-15T12:03:28;6.40;;;3.50;;
37609;SDS011;23457;51.966;8.230;2024-02-15T12:06:29;9.13;;;3.72;;
37609;SDS011;23457;51.966;8.230;2024-02-15T12:09:17;14.50;;;4.18;;
37609;SDS011;23457;51.966;8.230;2024-02-15T12:12:04;11.57;;;5.07;;
37609;SDS011;23457;51.966;8.230;2024-02-15T12:14:49;12.05;;;5.35;;
37609;SDS011;23457;51.966;8.230;2024-02-15T12:17:35;13.23;;;6.28;;
37609;SDS011;23457;51.966;8.230;2024-02-15T12:20:20;19.10;;;10.73;;
37609;SDS011;23457;51.966;8.230;2024-02-15T12:22:51;15.15;;;6.68;;
37609;SDS011;23457;51.966;8.230;2024-02-15T12:25:19;8.05;;;5.25;;
37609;SDS011;23457;51.966;8.230;2024-02-15T12:27:58;7.80;;;3.90;;
37609;SDS011;23457;51.966;8.230;2024-02-15T12:30:26;11.63;;;4.40;;
37609;SDS011;23457;51.966;8.230;2024-02-15T12:33:09;11.45;;;4.40;;
37609;SDS011;23457;51.966;8.230;2024-02-15T12:35:38;5.85;;;4.03;;
37609;SDS011;23457;51.966;8.230;2024-02-15T12:38:05;9.77;;;3.72;;
37609;SDS011;23457;51.966;8.230;2024-02-15T12:40:32;11.35;;;4.00;;
37609;SDS011;23457;51.966;8.230;2024-02-15T12:43:00;11.43;;;4.73;;
37609;SDS011;23457;51.966;8.230;2024-02-15T12:45:27;9.65;;;4.00;;
37609;SDS011;23457;51.966;8.230;2024-02-15T12:47:57;9.90;;;3.90;;
37609;SDS011;23457;51.966;8.230;2024-02-15T12:50:28;6.57;;;3.75;;
37609;SDS011;23457;51.966;8.230;2024-02-15T12:52:56;7.43;;;3.90;;
37609;SDS011;23457;51.966;8.230;2024-02-15T12:55:35;6.43;;;3.65;;
37609;SDS011;23457;51.966;8.230;2024-02-15T12:58:04;8.52;;;3.95;;
37609;SDS011;23457;51.966;8.230;2024-02-15T13:00:35;10.30;;;4.15;;
37609;SDS011;23457;51.966;8.230;2024-02-15T13:03:06;6.05;;;3.95;;
37609;SDS011;23457;51.966;8.230;2024-02-15T13:05:36;9.23;;;4.57;;
37609;SDS011;23457;51.966;8.230;2024-02-15T13:08:05;7.90;;;3.58;;
37609;SDS011;23457;51.966;8.230;2024-02-15T13:10:36;9.75;;;4.05;;
37609;SDS011;23457;51.966;8.230;2024-02-15T13:13:03;11.25;;;4.60;;
37609;SDS011;23457;51.966;8.230;2024-02-15T13:15:29;10.05;;;4.18;;
37609;SDS011;23457;51.966;8.230;2024-02-15T13:18:01;12.10;;;4.68;;
37609;SDS011;23457;51.966;8.230;2024-02-15T13:20:31;13.13;;;4.60;;
37609;SDS011;23457;51.966;8.230;2024-02-15T13:23:02;10.48;;;3.90;;
37609;SDS011;23457;51.966;8.230;2024-02-15T13:25:37;6.65;;;3.88;;
37609;SDS011;23457;51.966;8.230;2024-02-15T13:28:06;11.15;;;4.32;;
37609;SDS011;23457;51.966;8.230;2024-02-15T13:30:35;8.03;;;4.30;;
37609;SDS011;23457;51.966;8.230;2024-02-15T13:33:02;11.43;;;4.00;;
37609;SDS011;23457;51.966;8.230;2024-02-15T13:35:30;8.48;;;4.30;;
37609;SDS011;23457;51.966;8.230;2024-02-15T13:37:57;10.18;;;3.97;;
37609;SDS011;23457;51.966;8.230;2024-02-15T13:42:54;9.18;;;3.92;;
37609;SDS011;23457;51.966;8.230;2024-02-15T13:45:28;8.32;;;3.88;;
37609;SDS011;23457;51.966;8.230;2024-02-15T13:47:57;7.68;;;3.22;;
37609;SDS011;23457;51.966;8.230;2024-02-15T13:50:29;7.70;;;3.42;;
37609;SDS011;23457;51.966;8.230;2024-02-15T13:52:57;8.73;;;3.50;;
37609;SDS011;23457;51.966;8.230;2024-02-15T13:57:53;8.10;;;4.32;;
37609;SDS011;23457;51.966;8.230;2024-02-15T14:02:56;7.20;;;3.80;;
37609;SDS011;23457;51.966;8.230;2024-02-15T14:05:25;11.20;;;4.53;;
37609;SDS011;23457;51.966;8.230;2024-02-15T14:07:55;11.85;;;5.20;;
37609;SDS011;23457;51.966;8.230;2024-02-15T14:10:23;11.95;;;5.15;;
37609;SDS011;23457;51.966;8.230;2024-02-15T14:12:53;12.98;;;5.88;;
37609;SDS011;23457;51.966;8.230;2024-02-15T14:15:25;10.40;;;5.30;;
37609;SDS011;23457;51.966;8.230;2024-02-15T14:17:52;8.85;;;5.43;;
37609;SDS011;23457;51.966;8.230;2024-02-15T14:20:19;13.05;;;6.00;;
37609;SDS011;23457;51.966;8.230;2024-02-15T14:22:48;11.98;;;5.82;;
37609;SDS011;23457;51.966;8.230;2024-02-15T14:25:16;10.77;;;4.47;;
37609;SDS011;23457;51.966;8.230;2024-02-15T14:27:42;9.32;;;4.10;;
37609;SDS011;23457;51.966;8.230;2024-02-15T14:30:09;10.88;;;4.32;;
37609;SDS011;23457;51.966;8.230;2024-02-15T14:32:55;12.68;;;5.18;;
37609;SDS011;23457;51.966;8.230;2024-02-15T14:35:32;10.52;;;5.38;;
37609;SDS011;23457;51.966;8.230;2024-02-15T14:38:05;8.80;;;5.10;;
37609;SDS011;23457;51.966;8.230;2024-02-15T14:40:38;10.75;;;4.90;;
37609;SDS011;23457;51.966;8.230;2024-02-15T14:43:08;9.68;;;4.32;;
37609;SDS011;23457;51.966;8.230;2024-02-15T14:45:44;12.35;;;4.97;;
37609;SDS011;23457;51.966;8.230;2024-02-15T14:48:11;8.93;;;4.50;;
37609;SDS011;23457;51.966;8.230;2024-02-15T14:50:40;7.30;;;5.00;;
37609;SDS011;23457;51.966;8.230;2024-02-15T14:53:08;9.73;;;4.30;;
37609;SDS011;23457;51.966;8.230;2024-02-15T14:55:37;9.25;;;4.50;;
37609;SDS011;23457;51.966;8.230;2024-02-15T14:58:11;9.15;;;4.18;;
37609;SDS011;23457;51.966;8.230;2024-02-15T15:00:40;9.88;;;3.88;;
37609;SDS011;23457;51.966;8.230;2024-02-15T15:03:14;11.77;;;5.03;;
37609;SDS011;23457;51.966;8.230;2024-02-15T15:05:43;12.00;;;4.37;;
37609;SDS011;23457;51.966;8.230;2024-02-15T15:08:29;14.30;;;4.93;;
37609;SDS011;23457;51.966;8.230;2024-02-15T15:11:15;9.73;;;4.70;;
37609;SDS011;23457;51.966;8.230;2024-02-15T15:14:00;9.10;;;5.22;;
37609;SDS011;23457;51.966;8.230;2024-02-15T15:16:28;10.27;;;5.00;;
37609;SDS011;23457;51.966;8.230;2024-02-15T15:18:56;10.60;;;4.28;;
37609;SDS011;23457;51.966;8.230;2024-02-15T15:21:23;11.75;;;4.50;;
37609;SDS011;23457;51.966;8.230;2024-02-15T15:23:50;11.02;;;4.43;;
37609;SDS011;23457;51.966;8.230;2024-02-15T15:26:19;10.13;;;4.20;;
37609;SDS011;23457;51.966;8.230;2024-02-15T15:28:46;10.55;;;4.28;;
37609;SDS011;23457;51.966;8.230;2024-02-15T15:31:14;11.65;;;3.97;;
37609;SDS011;23457;51.966;8.230;2024-02-15T15:33:41;9.68;;;4.05;;
37609;SDS011;23457;51.966;8.230;2024-02-15T15:36:09;7.95;;;4.18;;
37609;SDS011;23457;51.966;8.230;2024-02-15T15:38:37;11.10;;;4.45;;
37609;SDS011;23457;51.966;8.230;2024-02-15T15:41:04;9.10;;;4.30;;
37609;SDS011;23457;51.966;8.230;2024-02-15T15:43:33;7.65;;;3.75;;
37609;SDS011;23457;51.966;8.230;2024-02-15T15:46:00;8.23;;;4.43;;
37609;SDS011;23457;51.966;8.230;2024-02-15T15:48:27;11.65;;;5.05;;
37609;SDS011;23457;51.966;8.230;2024-02-15T15:50:53;7.35;;;4.38;;